Livonia Center, New York
Current Conditions -  °F | °C
As of 3:54 PM on Thursday 20 Nov 2014 (Local Time) from KDSV Reporting Station
Clear Clear  
Wind Chill: 21°   Ceiling: Unl
Heat Index: 30°   Visibility: 10mi
Dew Point:   Wind: 10mph
Humidity: 40%   Direction: 240°WSW
Pressure: 29.86"   Gusts: 26mph
Location:  42.82°N, 77.64°W
Report Text: KDSV 202054Z AUTO 24009G23KT 10SM CLR M01/M13 A2986 RMK AO2 SLP126 T10111133 53008
Loading
Personal Weather Stations






























Interactive Weather Map New forecast layout! Learn more

10-Day Weather Forecast

Advertisements
Track Severe Weather on mobile